createdAt,value
2023-01-11T00:00:00.721Z,100711.50
2023-01-11T00:04:02.327Z,100706.47
2023-01-11T00:08:04.740Z,100702.25
2023-01-11T00:12:06.390Z,100702.38
2023-01-11T00:16:08.702Z,100691.31
2023-01-11T00:20:11.179Z,100687.94
2023-01-11T00:24:12.713Z,100688.03
2023-01-11T00:28:14.236Z,100689.91
2023-01-11T00:32:16.103Z,100678.94
2023-01-11T00:36:17.743Z,100678.25
2023-01-11T00:40:19.741Z,100675.69
2023-01-11T00:44:40.002Z,100661.28
2023-01-11T00:48:41.670Z,100645.97
2023-01-11T00:52:43.183Z,100638.53
2023-01-11T00:56:45.035Z,100625.56
2023-01-11T01:00:46.567Z,100625.56
2023-01-11T01:04:48.297Z,100625.88
2023-01-11T01:08:49.921Z,100618.25
2023-01-11T01:13:09.904Z,100620.06
2023-01-11T01:17:11.381Z,100615.78
2023-01-11T01:21:13.089Z,100608.28
2023-01-11T01:25:15.134Z,100606.59
2023-01-11T01:29:16.812Z,100612.69
2023-01-11T01:33:18.398Z,100607.59
2023-01-11T01:37:19.977Z,100616.06
2023-01-11T01:41:21.506Z,100614.31
2023-01-11T01:45:26.889Z,100620.22
2023-01-11T01:49:28.464Z,100611.59
2023-01-11T01:53:41.527Z,100622.59
2023-01-11T01:57:44.709Z,100616.56
2023-01-11T02:01:47.339Z,100617.47
2023-01-11T02:05:51.955Z,100616.56
2023-01-11T02:10:22.983Z,100607.91
2023-01-11T02:14:25.470Z,100608.72
2023-01-11T02:18:27.025Z,100609.50
2023-01-11T02:22:40.342Z,100602.59
2023-01-11T02:27:30.568Z,100601.81
2023-01-11T02:31:45.931Z,100590.59
2023-01-11T02:36:21.756Z,100588.31
2023-01-11T02:41:01.444Z,100584.13
2023-01-11T02:45:11.959Z,100576.47
2023-01-11T02:49:59.012Z,100591.72
2023-01-11T02:54:12.448Z,100573.19
2023-01-11T02:58:16.484Z,100569.16
2023-01-11T03:02:18.354Z,100567.56
2023-01-11T03:06:34.588Z,100556.53
2023-01-11T03:10:38.867Z,100552.97
2023-01-11T03:15:03.973Z,100546.13
2023-01-11T03:19:34.892Z,100554.66
2023-01-11T03:24:01.966Z,100545.03
2023-01-11T03:28:25.361Z,100544.22
2023-01-11T03:32:35.076Z,100540.00
2023-01-11T03:36:49.325Z,100539.38
2023-01-11T03:40:55.223Z,100530.00
2023-01-11T03:44:58.695Z,100517.38
2023-01-11T03:49:10.530Z,100503.94
2023-01-11T03:53:12.318Z,100503.00
2023-01-11T03:57:21.325Z,100495.47
2023-01-11T04:01:24.598Z,100499.75
2023-01-11T04:05:26.519Z,100494.72
2023-01-11T04:09:28.114Z,100488.75
2023-01-11T04:13:29.697Z,100492.22
2023-01-11T04:17:32.070Z,100478.66
2023-01-11T04:21:33.619Z,100479.47
2023-01-11T04:25:35.298Z,100475.16
2023-01-11T04:29:36.934Z,100477.81
2023-01-11T04:33:38.525Z,100469.31
2023-01-11T04:37:40.133Z,100459.09
2023-01-11T04:42:00.360Z,100459.09
2023-01-11T04:46:02.100Z,100454.00
2023-01-11T04:50:04.202Z,100448.69
2023-01-11T04:54:06.400Z,100440.97
2023-01-11T04:58:08.055Z,100435.66
2023-01-11T05:02:09.647Z,100445.06
2023-01-11T05:06:11.787Z,100444.16
2023-01-11T05:10:13.480Z,100436.50
2023-01-11T05:14:16.179Z,100432.25
2023-01-11T05:18:17.966Z,100433.13
2023-01-11T05:22:19.559Z,100433.31
2023-01-11T05:26:23.881Z,100433.38
2023-01-11T05:30:25.399Z,100436.88
2023-01-11T05:34:27.066Z,100426.88
2023-01-11T05:38:29.214Z,100432.97
2023-01-11T05:42:30.737Z,100432.00
2023-01-11T05:46:33.740Z,100430.16
2023-01-11T05:50:35.373Z,100417.50
2023-01-11T05:54:37.322Z,100410.72
2023-01-11T05:58:38.917Z,100409.97
2023-01-11T06:02:40.853Z,100408.38
2023-01-11T06:06:42.587Z,100398.16
2023-01-11T06:10:51.324Z,100400.63
2023-01-11T06:14:52.850Z,100392.31
2023-01-11T06:18:54.544Z,100393.41
2023-01-11T06:22:56.054Z,100382.53
2023-01-11T06:26:57.582Z,100374.06
2023-01-11T06:30:59.913Z,100370.75
2023-01-11T06:35:01.483Z,100370.06
2023-01-11T06:39:03.829Z,100360.72
2023-01-11T06:43:05.956Z,100358.19
2023-01-11T06:47:07.479Z,100358.31
2023-01-11T06:51:12.486Z,100351.53
2023-01-11T06:55:14.027Z,100344.81
2023-01-11T06:59:15.822Z,100338.97
2023-01-11T07:03:17.737Z,100342.47
2023-01-11T07:07:19.346Z,100337.38
2023-01-11T07:11:20.940Z,100323.00
2023-01-11T07:15:22.895Z,100326.63
2023-01-11T07:19:24.610Z,100336.13
2023-01-11T07:23:26.263Z,100329.41
2023-01-11T07:27:27.801Z,100327.81
2023-01-11T07:31:29.474Z,100333.94
2023-01-11T07:35:31.039Z,100328.00
2023-01-11T07:39:42.705Z,100328.88
2023-01-11T07:43:45.110Z,100332.28
2023-01-11T07:47:51.030Z,100337.47
2023-01-11T07:51:52.548Z,100341.78
2023-01-11T07:55:57.109Z,100336.72
2023-01-11T07:59:58.658Z,100337.59
2023-01-11T08:04:00.184Z,100337.66
2023-01-11T08:08:02.034Z,100334.22
2023-01-11T08:12:22.449Z,100347.00
2023-01-11T08:16:24.126Z,100334.19
2023-01-11T08:20:27.053Z,100342.03
2023-01-11T08:24:28.663Z,100342.94
2023-01-11T08:28:30.246Z,100336.13
2023-01-11T08:32:31.829Z,100333.72
2023-01-11T08:36:33.394Z,100328.47
2023-01-11T08:40:35.190Z,100336.22
2023-01-11T08:44:36.815Z,100342.28
2023-01-11T08:48:38.399Z,100344.09
2023-01-11T08:52:40.794Z,100325.38
2023-01-11T08:56:42.382Z,100340.72
2023-01-11T09:00:43.958Z,100347.56
2023-01-11T09:04:45.567Z,100336.53
2023-01-11T09:08:47.779Z,100335.59
2023-01-11T09:12:49.328Z,100352.66
2023-01-11T09:16:52.038Z,100340.72
2023-01-11T09:20:54.702Z,100350.13
2023-01-11T09:24:58.925Z,100344.31
2023-01-11T09:29:00.642Z,100358.91
2023-01-11T09:33:04.847Z,100345.38
2023-01-11T09:37:07.156Z,100362.50
2023-01-11T09:41:43.190Z,100359.88
2023-01-11T09:45:46.855Z,100360.72
2023-01-11T09:49:57.203Z,100374.44
2023-01-11T09:54:01.910Z,100371.88
2023-01-11T09:58:09.560Z,100376.34
2023-01-11T10:02:36.156Z,100361.88
2023-01-11T10:06:52.994Z,100373.84
2023-01-11T10:18:36.990Z,100365.47
2023-01-11T10:20:37.809Z,100348.38
2023-01-11T10:24:48.334Z,100358.59
2023-01-11T10:29:16.519Z,100353.59
2023-01-11T10:34:01.217Z,100350.47
2023-01-11T10:38:29.347Z,100344.81
2023-01-11T10:42:40.535Z,100349.38
2023-01-11T10:46:49.978Z,100351.25
2023-01-11T10:51:03.199Z,100349.00
2023-01-11T10:55:12.974Z,100353.31
2023-01-11T10:59:39.355Z,100358.59
2023-01-11T11:04:01.448Z,100360.28
2023-01-11T11:08:26.630Z,100360.94
2023-01-11T11:12:34.809Z,100366.00
2023-01-11T11:16:41.285Z,100357.56
2023-01-11T11:20:44.174Z,100366.09
2023-01-11T11:24:57.877Z,100358.53
2023-01-11T11:29:02.493Z,100365.41
2023-01-11T11:33:36.467Z,100362.50
2023-01-11T11:37:44.477Z,100357.25
2023-01-11T11:41:48.905Z,100360.38
2023-01-11T11:45:52.848Z,100356.53
2023-01-11T11:50:42.689Z,100357.56
2023-01-11T11:54:56.621Z,100354.13
2023-01-11T11:58:59.559Z,100346.56
2023-01-11T12:03:11.207Z,100344.78
2023-01-11T12:07:18.208Z,100345.53
2023-01-11T12:11:26.235Z,100324.09
2023-01-11T12:15:30.099Z,100322.47
2023-01-11T12:19:43.002Z,100319.13
2023-01-11T12:23:44.878Z,100324.16
2023-01-11T12:27:49.377Z,100317.28
2023-01-11T12:32:12.368Z,100322.47
2023-01-11T12:36:42.934Z,100311.28
2023-01-11T12:41:06.861Z,100307.09
2023-01-11T12:45:30.983Z,100316.50
2023-01-11T12:50:17.466Z,100331.78
2023-01-11T12:54:36.889Z,100342.81
2023-01-11T12:58:44.421Z,100341.94
2023-01-11T13:03:05.593Z,100342.88
2023-01-11T13:07:07.155Z,100365.34
2023-01-11T13:11:36.023Z,100367.91
2023-01-11T13:15:54.545Z,100368.84
2023-01-11T13:20:17.714Z,100374.44
2023-01-11T13:24:31.383Z,100363.38
2023-01-11T13:28:37.955Z,100360.16
2023-01-11T13:32:43.130Z,100344.88
2023-01-11T13:36:51.674Z,100365.56
2023-01-11T13:40:58.207Z,100364.88
2023-01-11T13:45:07.563Z,100376.38
2023-01-11T13:49:45.433Z,100382.53
2023-01-11T13:54:03.098Z,100399.44
2023-01-11T13:58:20.725Z,100400.72
2023-01-11T14:02:42.396Z,100415.88
2023-01-11T14:07:13.553Z,100420.06
2023-01-11T14:11:41.496Z,100424.94
2023-01-11T14:16:02.082Z,100423.63
2023-01-11T14:20:17.788Z,100426.78
2023-01-11T14:24:21.370Z,100431.91
2023-01-11T14:29:06.357Z,100439.38
2023-01-11T14:33:29.672Z,100447.81
2023-01-11T14:37:53.263Z,100452.69
2023-01-11T14:42:35.333Z,100463.56
2023-01-11T14:46:55.788Z,100467.56
2023-01-11T14:51:22.140Z,100475.13
2023-01-11T14:55:27.641Z,100492.91
2023-01-11T14:59:37.014Z,100514.94
2023-01-11T15:03:44.089Z,100513.00
2023-01-11T15:07:50.698Z,100505.09
2023-01-11T15:11:52.314Z,100520.25
2023-01-11T15:16:26.723Z,100523.50
2023-01-11T15:20:28.678Z,100536.03
2023-01-11T15:24:43.546Z,100541.13
2023-01-11T15:28:57.593Z,100551.25
2023-01-11T15:33:48.188Z,100541.69
2023-01-11T15:37:57.412Z,100543.16
2023-01-11T15:42:13.626Z,100549.81
2023-01-11T15:46:52.436Z,100553.97
2023-01-11T15:51:19.919Z,100572.38
2023-01-11T15:56:02.198Z,100574.94
2023-01-11T16:00:06.781Z,100587.59
2023-01-11T16:04:14.193Z,100605.41
2023-01-11T16:08:31.956Z,100618.94
2023-01-11T16:12:50.251Z,100616.16
2023-01-11T16:16:55.742Z,100632.25
2023-01-11T16:21:17.968Z,100646.88
2023-01-11T16:25:21.310Z,100650.28
2023-01-11T16:29:28.825Z,100662.41
2023-01-11T16:33:32.854Z,100669.38
2023-01-11T16:37:42.471Z,100678.84
2023-01-11T16:41:43.986Z,100686.69
2023-01-11T16:45:48.708Z,100695.09
2023-01-11T16:50:21.230Z,100694.94
2023-01-11T16:54:27.306Z,100707.50
2023-01-11T16:58:31.954Z,100716.66
2023-01-11T17:02:43.157Z,100727.59
2023-01-11T17:06:44.826Z,100721.19
2023-01-11T17:10:52.682Z,100728.59
2023-01-11T17:15:11.110Z,100743.81
2023-01-11T17:19:18.405Z,100735.91
2023-01-11T17:23:20.305Z,100748.53
2023-01-11T17:27:40.596Z,100755.47
2023-01-11T17:31:42.508Z,100757.91
2023-01-11T17:35:44.275Z,100768.94
2023-01-11T17:39:49.872Z,100775.56
2023-01-11T17:44:10.074Z,100782.97
2023-01-11T17:48:14.009Z,100780.66
2023-01-11T17:52:23.713Z,100780.09
2023-01-11T17:56:34.687Z,100789.16
2023-01-11T18:00:37.135Z,100794.72
2023-01-11T18:04:39.205Z,100805.59
2023-01-11T18:08:47.347Z,100806.19
2023-01-11T18:12:50.413Z,100810.91
2023-01-11T18:17:02.625Z,100819.06
2023-01-11T18:21:04.346Z,100840.06
2023-01-11T18:25:22.812Z,100839.00
2023-01-11T18:29:36.426Z,100857.59
2023-01-11T18:33:40.421Z,100854.00
2023-01-11T18:37:41.945Z,100864.88
2023-01-11T18:42:02.331Z,100880.25
2023-01-11T18:46:04.072Z,100894.69
2023-01-11T18:50:06.665Z,100902.19
2023-01-11T18:54:15.623Z,100903.88
2023-01-11T18:58:17.272Z,100903.00
2023-01-11T19:02:26.610Z,100891.03
2023-01-11T19:06:28.533Z,100911.69
2023-01-11T19:10:30.107Z,100898.09
2023-01-11T19:14:31.949Z,100905.28
2023-01-11T19:18:35.328Z,100910.66
2023-01-11T19:22:37.872Z,100898.91
2023-01-11T19:26:39.464Z,100906.44
2023-01-11T19:30:41.106Z,100918.31
2023-01-11T19:34:45.480Z,100912.06
2023-01-11T19:38:47.472Z,100918.84
2023-01-11T19:42:52.201Z,100909.56
2023-01-11T19:47:09.637Z,100912.41
2023-01-11T19:51:12.799Z,100915.91
2023-01-11T19:55:14.528Z,100919.50
2023-01-11T19:59:16.231Z,100930.66
2023-01-11T20:03:17.870Z,100925.00
2023-01-11T20:07:20.271Z,100913.97
2023-01-11T20:11:22.224Z,100907.03
2023-01-11T20:15:24.041Z,100903.47
2023-01-11T20:19:26.161Z,100910.31
2023-01-11T20:23:30.694Z,100918.88
2023-01-11T20:27:34.001Z,100927.25
2023-01-11T20:31:36.171Z,100924.88
2023-01-11T20:35:37.902Z,100931.13
2023-01-11T20:39:39.521Z,100923.31
2023-01-11T20:43:41.196Z,100920.38
2023-01-11T20:47:42.978Z,100916.63
2023-01-11T20:51:46.866Z,100918.91
2023-01-11T20:55:48.489Z,100912.78
2023-01-11T20:59:50.244Z,100922.84
2023-01-11T21:03:52.377Z,100920.22
2023-01-11T21:07:53.936Z,100908.97
2023-01-11T21:11:55.523Z,100904.56
2023-01-11T21:15:57.305Z,100910.47
2023-01-11T21:19:58.911Z,100911.19
2023-01-11T21:24:03.266Z,100893.19
2023-01-11T21:28:04.931Z,100892.22
2023-01-11T21:32:06.478Z,100884.25
2023-01-11T21:36:12.626Z,100891.72
2023-01-11T21:40:14.840Z,100880.56
2023-01-11T21:44:17.942Z,100883.13
2023-01-11T21:48:19.466Z,100868.63
2023-01-11T21:52:21.053Z,100861.69
2023-01-11T21:56:22.825Z,100862.66
2023-01-11T22:00:24.432Z,100877.16
2023-01-11T22:04:26.075Z,100898.34
2023-01-11T22:08:27.774Z,100893.31
2023-01-11T22:12:29.339Z,100895.16
2023-01-11T22:16:32.179Z,100897.81
2023-01-11T22:20:34.330Z,100900.25
2023-01-11T22:24:35.937Z,100898.59
2023-01-11T22:28:57.768Z,100910.47
2023-01-11T22:33:00.339Z,100913.09
2023-01-11T22:37:02.046Z,100921.84
2023-01-11T22:41:03.603Z,100911.03
2023-01-11T22:45:07.586Z,100914.53
2023-01-11T22:49:09.560Z,100904.34
2023-01-11T22:53:11.137Z,100914.47
2023-01-11T22:57:12.686Z,100900.81
2023-01-11T23:01:15.980Z,100900.91
2023-01-11T23:05:17.546Z,100901.00
2023-01-11T23:09:19.187Z,100895.06
2023-01-11T23:19:18.758Z,100900.81
2023-01-11T23:23:20.398Z,100900.16
2023-01-11T23:27:21.918Z,100910.47
2023-01-11T23:31:25.117Z,100904.47
2023-01-11T23:35:26.737Z,100902.81
2023-01-11T23:39:28.283Z,100906.22
2023-01-11T23:43:29.782Z,100904.47
2023-01-11T23:47:31.832Z,100898.50
2023-01-11T23:51:34.675Z,100878.28
2023-01-11T23:55:36.211Z,100883.78
2023-01-11T23:59:38.994Z,100884.88
